Aviation Digital Data Service (ADDS)

Output produced by TAFs form (1439 UTC 10 December 2016)
found at http://aviationweather.gov/adds/tafs/
 
KTCC 101129Z 1012/1112 24010KT P6SM BKN200 
     FM101800 24018G28KT P6SM SCT200